Time;durP1;ratioP1;P1;durP2;ratioP2;P2;SDS_P1;SDS_P2;PMS_P1;PMS_P2;Temp;Humidity;BMP_temperature;BMP_pressure;BME280_temperature;BME280_humidity;BME280_pressure;Samples;Min_cycle;Max_cycle;Signal;HPM_P1;HPM_P2
2023/02/10 00:02:06;;;;;;;12.70;5.60;;;;;;;-7.55;100.00;102795.66;110006;1245;60403;-81
2023/02/10 00:04:56;;;;;;;14.70;5.90;;;;;;;-7.62;100.00;102797.54;110012;1247;60564;-81
2023/02/10 00:07:45;;;;;;;13.30;6.50;;;;;;;-7.63;100.00;102797.27;110005;1245;74822;-81
2023/02/10 00:10:34;;;;;;;17.00;7.60;;;;;;;-7.65;100.00;102793.52;109877;1246;69767;-81
2023/02/10 00:13:24;;;;;;;16.80;6.80;;;;;;;-7.62;100.00;102791.90;109856;1246;72986;-80
2023/02/10 00:16:14;;;;;;;18.20;6.70;;;;;;;-7.62;100.00;102790.81;110008;1246;60244;-80
2023/02/10 00:19:06;;;;;;;11.00;5.80;;;;;;;-7.64;100.00;102785.99;109720;1245;199238;-80
2023/02/10 00:21:55;;;;;;;12.70;6.10;;;;;;;-7.66;100.00;102787.38;109958;1246;75963;-81
2023/02/10 00:24:44;;;;;;;19.40;6.60;;;;;;;-7.67;100.00;102785.48;109950;1246;66805;-80
2023/02/10 00:27:33;;;;;;;16.10;6.20;;;;;;;-7.67;100.00;102780.52;109996;1246;73191;-81
2023/02/10 00:30:22;;;;;;;16.10;6.00;;;;;;;-7.68;100.00;102777.62;110056;1244;60597;-81
2023/02/10 00:33:11;;;;;;;11.20;5.30;;;;;;;-7.71;100.00;102780.49;110059;1245;60719;-81
2023/02/10 00:36:06;;;;;;;12.20;5.50;;;;;;;-7.73;100.00;102777.58;109833;1246;74022;-81
2023/02/10 00:38:55;;;;;;;15.80;5.30;;;;;;;-7.75;100.00;102774.52;109965;1246;68896;-80
2023/02/10 00:41:44;;;;;;;15.30;5.40;;;;;;;-7.78;100.00;102776.16;109859;1246;72621;-81
2023/02/10 00:44:33;;;;;;;14.00;5.50;;;;;;;-7.81;100.00;102775.45;109641;1245;64476;-81
2023/02/10 00:47:23;;;;;;;10.80;4.70;;;;;;;-7.84;100.00;102773.17;109747;1246;59824;-81
2023/02/10 00:50:12;;;;;;;11.50;5.30;;;;;;;-7.88;100.00;102771.99;109693;1247;75439;-81
2023/02/10 00:53:01;;;;;;;10.90;4.70;;;;;;;-7.90;100.00;102771.25;110023;1249;68914;-81
2023/02/10 00:55:50;;;;;;;14.90;6.30;;;;;;;-7.95;100.00;102772.86;109773;1246;73709;-82
2023/02/10 00:58:39;;;;;;;12.70;5.10;;;;;;;-8.03;100.00;102770.17;109974;1246;62427;-82
2023/02/10 01:01:28;;;;;;;11.20;4.60;;;;;;;-8.09;100.00;102760.69;109942;1246;60349;-81
2023/02/10 01:04:16;;;;;;;10.00;4.60;;;;;;;-8.09;100.00;102759.44;109903;1246;74774;-81
2023/02/10 01:07:08;;;;;;;10.70;4.50;;;;;;;-8.13;100.00;102759.71;109951;1245;71024;-81
2023/02/10 01:09:57;;;;;;;10.60;5.00;;;;;;;-8.17;100.00;102753.77;109790;1246;70867;-81
2023/02/10 01:12:46;;;;;;;9.70;4.30;;;;;;;-8.19;100.00;102753.20;109893;1246;60088;-81
2023/02/10 01:15:35;;;;;;;9.90;4.70;;;;;;;-8.23;100.00;102754.83;110058;1246;59165;-81
2023/02/10 01:18:24;;;;;;;9.00;4.40;;;;;;;-8.24;100.00;102751.74;109959;1246;74898;-81
2023/02/10 01:21:16;;;;;;;11.50;5.40;;;;;;;-8.25;100.00;102745.92;109805;1246;68744;-81
2023/02/10 01:24:05;;;;;;;14.20;5.40;;;;;;;-8.27;100.00;102736.73;109758;1246;73356;-81
2023/02/10 01:26:54;;;;;;;8.70;3.90;;;;;;;-8.30;100.00;102732.70;109909;1246;62169;-81
2023/02/10 01:29:43;;;;;;;13.80;5.50;;;;;;;-8.35;100.00;102727.70;109737;1246;61421;-81
2023/02/10 01:32:33;;;;;;;18.40;5.40;;;;;;;-8.47;100.00;102730.06;109934;1246;72851;-81
2023/02/10 01:35:24;;;;;;;12.10;4.80;;;;;;;-8.49;100.00;102723.69;109762;1246;67718;-81
2023/02/10 01:38:14;;;;;;;13.40;5.50;;;;;;;-8.49;100.00;102723.88;109861;1246;72725;-81
2023/02/10 01:41:04;;;;;;;13.80;5.60;;;;;;;-8.44;100.00;102724.63;109814;1246;59038;-81
2023/02/10 01:44:05;;;;;;;12.20;5.30;;;;;;;-8.39;100.00;102721.65;109647;1246;59268;-81
2023/02/10 01:46:54;;;;;;;12.00;5.10;;;;;;;-8.41;100.00;102727.08;110038;1246;72595;-81
2023/02/10 01:49:46;;;;;;;13.20;5.80;;;;;;;-8.42;100.00;102728.02;109725;1245;66621;-81
2023/02/10 01:52:35;;;;;;;9.70;4.60;;;;;;;-8.43;100.00;102732.17;109854;1246;73068;-81
2023/02/10 01:55:26;;;;;;;10.80;5.10;;;;;;;-8.46;100.00;102731.27;109777;1246;61947;-81
2023/02/10 01:58:16;;;;;;;15.40;4.80;;;;;;;-8.51;100.00;102727.70;109785;1246;59517;-81
2023/02/10 02:01:05;;;;;;;13.00;5.20;;;;;;;-8.51;100.00;102723.14;109739;1246;72914;-81
2023/02/10 02:03:53;;;;;;;17.70;5.70;;;;;;;-8.49;100.00;102718.59;109892;1250;69382;-81
2023/02/10 02:06:42;;;;;;;11.90;4.60;;;;;;;-8.48;100.00;102714.41;109993;1245;73057;-81
2023/02/10 02:09:31;;;;;;;16.90;5.50;;;;;;;-8.46;100.00;102704.38;109790;1246;60506;-81
2023/02/10 02:12:26;;;;;;;12.40;6.00;;;;;;;-8.48;100.00;102699.44;109929;1246;59491;-81
2023/02/10 02:15:36;;;;;;;9.20;3.80;;;;;;;-8.51;100.00;102697.13;109767;1245;72558;-81
2023/02/10 02:18:40;;;;;;;13.10;4.80;;;;;;;-8.55;100.00;102697.77;109822;1246;66652;-81
2023/02/10 02:21:44;;;;;;;11.10;5.20;;;;;;;-8.59;100.00;102702.42;109624;1245;72588;-81
2023/02/10 02:24:53;;;;;;;10.30;3.90;;;;;;;-8.70;100.00;102699.41;110004;1246;59880;-81
2023/02/10 02:27:51;;;;;;;8.60;3.70;;;;;;;-8.74;100.00;102699.85;109745;1245;60257;-81
2023/02/10 02:30:44;;;;;;;11.60;4.60;;;;;;;-8.75;100.00;102704.48;109769;1245;72813;-81
2023/02/10 02:33:51;;;;;;;10.00;4.00;;;;;;;-8.77;100.00;102706.04;109966;1246;68825;-81
2023/02/10 02:36:42;;;;;;;16.00;5.70;;;;;;;-8.80;100.00;102706.93;109961;1246;73837;-81
2023/02/10 02:39:32;;;;;;;13.40;5.40;;;;;;;-8.78;100.00;102708.38;109744;1247;61421;-79
2023/02/10 02:42:22;;;;;;;11.40;6.00;;;;;;;-8.78;100.00;102706.25;109826;1246;58891;-81
2023/02/10 02:45:19;;;;;;;11.50;5.70;;;;;;;-8.71;100.00;102703.53;109725;1246;74273;-79
2023/02/10 02:48:11;;;;;;;14.30;5.60;;;;;;;-8.63;100.00;102700.02;109757;1246;69689;-79
2023/02/10 02:51:03;;;;;;;9.60;3.90;;;;;;;-8.58;100.00;102697.79;109824;1245;73358;-81
2023/02/10 02:54:07;;;;;;;11.60;4.50;;;;;;;-8.59;100.00;102700.49;109825;1247;60046;-81
2023/02/10 02:57:02;;;;;;;11.60;5.70;;;;;;;-8.55;100.00;102695.45;109980;1246;60463;-81
2023/02/10 02:59:54;;;;;;;18.50;9.30;;;;;;;-8.49;100.00;102695.02;109793;1245;74761;-81
2023/02/10 03:02:45;;;;;;;21.40;8.60;;;;;;;-8.42;100.00;102699.04;109716;1246;68963;-81
2023/02/10 03:05:34;;;;;;;15.30;6.00;;;;;;;-8.42;100.00;102700.81;109731;1245;72711;-81
2023/02/10 03:08:24;;;;;;;18.70;6.40;;;;;;;-8.46;100.00;102705.45;109569;1246;63616;-81
2023/02/10 03:11:12;;;;;;;15.80;6.70;;;;;;;-8.49;100.00;102700.88;109643;1246;60696;-81
2023/02/10 03:14:01;;;;;;;15.80;5.10;;;;;;;-8.45;100.00;102697.45;109848;1246;73821;-81
2023/02/10 03:16:50;;;;;;;12.40;5.80;;;;;;;-8.40;100.00;102694.61;109921;1246;67682;-81
2023/02/10 03:19:39;;;;;;;16.60;5.90;;;;;;;-8.39;100.00;102688.04;109871;1246;73666;-81
2023/02/10 03:22:28;;;;;;;12.20;5.80;;;;;;;-8.41;100.00;102686.08;109972;1249;61286;-81
2023/02/10 03:25:17;;;;;;;14.00;5.80;;;;;;;-8.40;100.00;102682.62;109756;1246;59179;-81
2023/02/10 03:28:08;;;;;;;7.70;4.10;;;;;;;-8.32;100.00;102685.64;110033;1245;75115;-81
2023/02/10 03:31:04;;;;;;;8.00;5.10;;;;;;;-8.33;100.00;102686.52;109992;1245;69018;-81
2023/02/10 03:33:53;;;;;;;11.60;4.90;;;;;;;-8.34;100.00;102684.67;109956;1246;72658;-81
2023/02/10 03:36:42;;;;;;;13.60;5.30;;;;;;;-8.31;100.00;102682.73;110005;1245;59257;-81
2023/02/10 03:39:32;;;;;;;12.20;4.80;;;;;;;-8.28;100.00;102685.66;109927;1246;61620;-81
2023/02/10 03:42:20;;;;;;;14.20;5.80;;;;;;;-8.27;100.00;102685.95;109986;1247;75312;-81
2023/02/10 03:45:09;;;;;;;15.40;5.30;;;;;;;-8.24;100.00;102685.91;109872;1246;69107;-81
2023/02/10 03:47:58;;;;;;;18.80;6.30;;;;;;;-8.19;100.00;102676.78;109847;1246;70537;-81
2023/02/10 03:50:47;;;;;;;10.80;5.00;;;;;;;-8.13;100.00;102671.65;109813;1246;61110;-81
2023/02/10 03:53:36;;;;;;;14.60;4.70;;;;;;;-8.10;100.00;102669.63;109927;1246;59623;-81
2023/02/10 03:56:25;;;;;;;12.60;5.70;;;;;;;-8.00;100.00;102670.22;110124;1244;72756;-81
2023/02/10 03:59:13;;;;;;;14.90;5.90;;;;;;;-8.00;100.00;102665.78;110056;1244;69283;-79
2023/02/10 04:02:02;;;;;;;13.40;5.30;;;;;;;-8.01;100.00;102657.70;109666;1246;73085;-79
2023/02/10 04:04:51;;;;;;;16.30;5.30;;;;;;;-8.00;100.00;102655.69;109834;1246;58975;-81
2023/02/10 04:07:40;;;;;;;13.50;6.70;;;;;;;-7.94;100.00;102659.20;109906;1246;60737;-80
2023/02/10 04:10:29;;;;;;;16.00;5.20;;;;;;;-7.88;100.00;102655.92;109836;1245;74821;-81
2023/02/10 04:13:19;;;;;;;15.70;6.60;;;;;;;-7.86;100.00;102655.45;109922;1246;69064;-80
2023/02/10 04:16:12;;;;;;;16.40;6.00;;;;;;;-7.84;100.00;102660.07;109987;1245;72848;-80
2023/02/10 04:19:03;;;;;;;16.20;7.10;;;;;;;-7.81;100.00;102658.14;109942;1245;60993;-80
2023/02/10 04:21:52;;;;;;;17.70;6.60;;;;;;;-7.77;100.00;102660.16;109844;1246;59845;-80
2023/02/10 04:24:42;;;;;;;11.30;5.70;;;;;;;-7.73;100.00;102657.26;109919;1245;75200;-80
2023/02/10 04:27:32;;;;;;;11.30;5.20;;;;;;;-7.75;100.00;102655.96;109873;1246;69136;-80
2023/02/10 04:30:20;;;;;;;11.90;5.70;;;;;;;-7.75;100.00;102653.49;109882;1246;71394;-80
2023/02/10 04:33:09;;;;;;;12.00;6.40;;;;;;;-7.76;100.00;102652.64;109979;1246;61220;-80
2023/02/10 04:35:57;;;;;;;17.60;6.10;;;;;;;-7.76;100.00;102653.77;109962;1247;59225;-80
2023/02/10 04:38:46;;;;;;;11.90;6.00;;;;;;;-7.77;100.00;102653.64;109990;1246;74660;-80
2023/02/10 04:41:36;;;;;;;15.50;5.90;;;;;;;-7.83;100.00;102653.32;109993;1245;69768;-80
2023/02/10 04:44:24;;;;;;;17.50;5.90;;;;;;;-7.98;100.00;102653.23;110100;1244;72777;-80
2023/02/10 04:47:13;;;;;;;17.60;7.20;;;;;;;-8.03;100.00;102656.96;110007;1246;60413;-81
2023/02/10 04:50:04;;;;;;;11.90;5.40;;;;;;;-8.00;100.00;102660.47;109954;1245;59094;-80
2023/02/10 04:52:52;;;;;;;16.20;6.10;;;;;;;-8.13;100.00;102658.02;109905;1246;75155;-80
2023/02/10 04:55:41;;;;;;;20.10;7.30;;;;;;;-8.20;100.00;102655.83;109868;1245;68047;-80
2023/02/10 04:58:30;;;;;;;18.30;7.10;;;;;;;-8.17;100.00;102656.66;109961;1246;72056;-80
2023/02/10 05:01:19;;;;;;;15.40;6.30;;;;;;;-8.15;100.00;102658.15;109855;1246;61684;-80
2023/02/10 05:04:08;;;;;;;13.80;6.00;;;;;;;-8.16;100.00;102659.77;109968;1246;59191;-80
2023/02/10 05:06:58;;;;;;;13.90;6.20;;;;;;;-8.17;100.00;102663.23;110011;1245;76281;-80
2023/02/10 05:09:47;;;;;;;12.90;6.00;;;;;;;-8.16;100.00;102665.79;109897;1246;68704;-80
2023/02/10 05:12:36;;;;;;;14.80;6.10;;;;;;;-8.14;100.00;102661.44;109972;1246;72587;-80
2023/02/10 05:15:24;;;;;;;14.40;6.50;;;;;;;-8.15;100.00;102657.60;109917;1249;59359;-80
2023/02/10 05:18:13;;;;;;;14.00;6.00;;;;;;;-8.14;100.00;102651.17;109971;1245;59099;-80
2023/02/10 05:21:04;;;;;;;14.40;5.80;;;;;;;-8.16;100.00;102654.11;109899;1246;75800;-80
2023/02/10 05:23:53;;;;;;;14.90;5.50;;;;;;;-8.19;100.00;102652.05;110014;1246;69518;-80
2023/02/10 05:26:42;;;;;;;15.30;5.60;;;;;;;-8.16;100.00;102652.17;109964;1246;73389;-80
2023/02/10 05:29:31;;;;;;;14.10;5.10;;;;;;;-8.14;100.00;102652.58;109915;1247;62550;-80
2023/02/10 05:32:19;;;;;;;24.60;6.90;;;;;;;-8.10;100.00;102653.34;109970;1246;60504;-80
2023/02/10 05:35:08;;;;;;;12.70;5.00;;;;;;;-7.96;100.00;102651.73;110037;1244;74309;-80
2023/02/10 05:37:57;;;;;;;12.80;5.30;;;;;;;-7.85;100.00;102652.20;109792;1245;67589;-80
2023/02/10 05:40:48;;;;;;;15.40;6.40;;;;;;;-7.73;100.00;102654.61;109940;1245;73826;-80
2023/02/10 05:43:37;;;;;;;9.30;5.60;;;;;;;-7.69;100.00;102652.86;109939;1245;59985;-80
2023/02/10 05:46:27;;;;;;;16.10;6.00;;;;;;;-7.58;100.00;102649.29;109954;1244;60791;-80
2023/02/10 05:49:16;;;;;;;14.90;6.00;;;;;;;-7.38;100.00;102647.67;109914;1247;73593;-81
2023/02/10 05:52:04;;;;;;;20.30;7.00;;;;;;;-7.19;100.00;102649.38;109913;1249;67555;-80
2023/02/10 05:54:53;;;;;;;15.40;7.00;;;;;;;-6.98;100.00;102644.46;109828;1244;73814;-81
2023/02/10 05:57:42;;;;;;;18.80;8.40;;;;;;;-6.74;100.00;102641.35;110109;1244;60899;-81
2023/02/10 06:00:31;;;;;;;34.20;12.60;;;;;;;-6.50;100.00;102640.44;109908;1245;61485;-81
2023/02/10 06:03:20;;;;;;;19.90;9.50;;;;;;;-6.17;100.00;102639.41;109891;1245;75222;-81
2023/02/10 06:06:09;;;;;;;12.70;5.80;;;;;;;-5.92;100.00;102638.94;109934;1246;67790;-81
2023/02/10 06:08:58;;;;;;;37.70;13.00;;;;;;;-5.66;100.00;102643.27;109944;1244;73840;-81
2023/02/10 06:11:51;;;;;;;25.70;10.10;;;;;;;-5.41;100.00;102640.98;109908;1249;60997;-79
2023/02/10 06:14:40;;;;;;;14.70;6.00;;;;;;;-5.10;100.00;102636.89;109706;1245;59344;-79
2023/02/10 06:17:31;;;;;;;12.90;5.60;;;;;;;-4.84;100.00;102629.25;109770;1246;74533;-79
2023/02/10 06:20:20;;;;;;;18.30;5.70;;;;;;;-4.54;100.00;102625.41;109892;1244;69103;-79
2023/02/10 06:23:09;;;;;;;13.40;5.20;;;;;;;-4.19;100.00;102625.52;109918;1246;70793;-79
2023/02/10 06:25:58;;;;;;;11.00;5.60;;;;;;;-3.89;100.00;102624.45;109839;1246;59236;-81
2023/02/10 06:28:47;;;;;;;14.00;6.00;;;;;;;-3.59;100.00;102624.11;109973;1247;61225;-81
2023/02/10 06:31:37;;;;;;;15.30;8.10;;;;;;;-3.29;100.00;102619.37;109747;1245;74686;-81
2023/02/10 06:34:26;;;;;;;11.50;5.70;;;;;;;-2.98;100.00;102621.06;109872;1246;69189;-80
2023/02/10 06:37:15;;;;;;;14.50;5.70;;;;;;;-2.68;100.00;102617.91;109932;1246;73027;-82
2023/02/10 06:40:04;;;;;;;20.70;10.20;;;;;;;-2.39;100.00;102617.67;109822;1246;59603;-82
2023/02/10 06:42:53;;;;;;;16.70;7.90;;;;;;;-2.08;100.00;102612.87;110020;1248;61095;-81
2023/02/10 06:45:42;;;;;;;10.60;5.30;;;;;;;-1.78;100.00;102610.63;109931;1246;75177;-82
2023/02/10 06:48:31;;;;;;;13.00;4.90;;;;;;;-1.56;100.00;102608.39;109933;1246;66357;-82
2023/02/10 06:51:20;;;;;;;10.10;4.00;;;;;;;-1.38;100.00;102602.88;109896;1245;70640;-82
2023/02/10 06:54:09;;;;;;;11.60;4.30;;;;;;;-1.09;100.00;102597.70;109868;1245;61415;-83
2023/02/10 06:56:57;;;;;;;8.00;4.00;;;;;;;-0.78;100.00;102593.42;109948;1246;60780;-80
2023/02/10 06:59:46;;;;;;;13.60;4.60;;;;;;;-0.55;100.00;102599.91;109892;1245;75473;-80
2023/02/10 07:02:35;;;;;;;11.20;4.10;;;;;;;-0.40;100.00;102592.13;109792;1246;69157;-80
2023/02/10 07:05:25;;;;;;;12.00;4.70;;;;;;;-0.23;100.00;102586.16;110063;1244;72652;-81
2023/02/10 07:08:13;;;;;;;9.30;3.60;;;;;;;-0.09;100.00;102584.92;109875;1246;60403;-81
2023/02/10 07:11:03;;;;;;;10.50;4.40;;;;;;;0.14;98.24;102576.77;109886;1246;59134;-80
2023/02/10 07:13:52;;;;;;;10.90;4.60;;;;;;;0.38;90.53;102574.82;109879;1246;73469;-81
2023/02/10 07:16:41;;;;;;;6.90;3.80;;;;;;;0.59;80.27;102576.09;109863;1247;69938;-80
2023/02/10 07:19:31;;;;;;;8.80;3.80;;;;;;;0.76;72.49;102573.00;110081;1244;71530;-81
2023/02/10 07:22:20;;;;;;;11.50;4.30;;;;;;;0.90;68.43;102575.84;109946;1244;59207;-80
2023/02/10 07:25:09;;;;;;;11.30;4.20;;;;;;;1.00;66.23;102572.84;109831;1245;59069;-80
2023/02/10 07:27:59;;;;;;;8.40;4.30;;;;;;;1.17;60.22;102566.69;109785;1246;73865;-83
2023/02/10 07:30:47;;;;;;;9.70;4.80;;;;;;;1.22;57.83;102556.59;109906;1246;67500;-80
2023/02/10 07:33:38;;;;;;;10.70;4.10;;;;;;;1.27;56.14;102556.20;109969;1245;73682;-82
2023/02/10 07:36:27;;;;;;;10.90;4.30;;;;;;;1.31;54.05;102553.31;109830;1244;59654;-82
2023/02/10 07:39:15;;;;;;;8.10;3.90;;;;;;;1.22;52.72;102549.42;110094;1245;60210;-81
2023/02/10 07:42:04;;;;;;;9.10;3.60;;;;;;;1.23;52.79;102542.89;110146;1246;73234;-81
2023/02/10 07:45:00;;;;;;;7.80;4.20;;;;;;;1.23;52.46;102542.19;109944;1246;69139;-81
2023/02/10 07:47:48;;;;;;;12.90;4.90;;;;;;;1.28;50.84;102540.46;109937;1245;70545;-82
2023/02/10 07:50:40;;;;;;;8.80;4.60;;;;;;;1.28;49.14;102531.92;109837;1246;59115;-82
2023/02/10 07:53:29;;;;;;;10.10;4.70;;;;;;;1.29;49.96;102531.28;109940;1246;61489;-82
2023/02/10 07:56:18;;;;;;;8.20;3.90;;;;;;;1.38;49.68;102524.89;109806;1244;73926;-82
2023/02/10 07:59:06;;;;;;;11.60;4.70;;;;;;;1.43;50.23;102522.17;110061;1244;66925;-82
2023/02/10 08:01:57;;;;;;;11.80;4.60;;;;;;;1.47;50.55;102518.41;109981;1246;72517;-82
2023/02/10 08:04:46;;;;;;;13.40;6.50;;;;;;;1.53;49.59;102521.42;109886;1246;59484;-82
2023/02/10 08:07:37;;;;;;;13.30;5.90;;;;;;;1.59;47.74;102525.67;109954;1244;61684;-82
2023/02/10 08:10:27;;;;;;;14.40;7.10;;;;;;;1.47;47.10;102527.16;109905;1247;73440;-82
2023/02/10 08:13:16;;;;;;;23.00;10.80;;;;;;;1.41;46.59;102522.73;109902;1247;69229;-82
2023/02/10 08:16:07;;;;;;;10.70;4.00;;;;;;;1.34;46.48;102517.09;109828;1249;71526;-82
2023/02/10 08:18:56;;;;;;;13.70;5.70;;;;;;;1.30;47.00;102512.83;109850;1246;61176;-82
2023/02/10 08:21:46;;;;;;;182.30;81.10;;;;;;;1.33;46.97;102506.75;109892;1247;60234;-82
2023/02/10 08:24:35;;;;;;;70.40;24.50;;;;;;;1.49;47.16;102501.42;109934;1246;75046;-83
2023/02/10 08:27:24;;;;;;;94.30;39.80;;;;;;;1.77;47.06;102493.71;109996;1248;69114;-82
2023/02/10 08:30:13;;;;;;;130.90;54.30;;;;;;;1.95;46.03;102488.42;109951;1244;71765;-82
2023/02/10 08:33:02;;;;;;;11.00;5.20;;;;;;;2.01;45.30;102483.63;109943;1245;59291;-83
2023/02/10 08:35:50;;;;;;;8.50;3.80;;;;;;;2.05;44.67;102480.09;110213;1244;59615;-83
2023/02/10 08:38:40;;;;;;;7.60;4.50;;;;;;;2.19;44.06;102481.90;109844;1246;74518;-83
2023/02/10 08:41:30;;;;;;;10.20;5.00;;;;;;;2.29;43.32;102483.99;109832;1249;69346;-82
2023/02/10 08:44:19;;;;;;;12.00;4.90;;;;;;;2.29;42.74;102489.76;110038;1246;71941;-83
2023/02/10 08:47:10;;;;;;;10.20;6.50;;;;;;;2.35;42.50;102490.39;109830;1246;59179;-83
2023/02/10 08:49:59;;;;;;;7.80;3.80;;;;;;;2.42;41.91;102490.85;110141;1244;60978;-83
2023/02/10 08:52:49;;;;;;;12.70;6.90;;;;;;;2.46;42.03;102492.65;109896;1246;74784;-83
2023/02/10 08:55:39;;;;;;;9.80;5.60;;;;;;;2.42;41.87;102492.23;109829;1247;68106;-83
2023/02/10 08:58:28;;;;;;;9.80;4.90;;;;;;;2.49;41.77;102488.02;109796;1246;73515;-84
2023/02/10 09:01:21;;;;;;;8.20;4.30;;;;;;;2.67;40.84;102486.30;109818;1246;59583;-82
2023/02/10 09:04:14;;;;;;;9.70;4.00;;;;;;;2.69;40.30;102480.13;109981;1246;59893;-84
2023/02/10 09:07:04;;;;;;;7.50;3.30;;;;;;;2.80;40.84;102473.82;110002;1244;75479;-85
2023/02/10 09:09:53;;;;;;;5.10;2.80;;;;;;;2.99;41.23;102473.17;109929;1244;66619;-86
2023/02/10 09:12:42;;;;;;;10.70;5.20;;;;;;;3.11;40.41;102470.90;109892;1246;73178;-86
2023/02/10 09:15:31;;;;;;;7.00;3.60;;;;;;;3.15;39.17;102470.80;109813;1246;59445;-87
2023/02/10 09:18:25;;;;;;;8.60;3.20;;;;;;;3.04;39.08;102474.09;109904;1244;60335;-87
2023/02/10 09:21:14;;;;;;;7.00;3.60;;;;;;;3.22;40.07;102466.19;109918;1246;75835;-88
2023/02/10 09:24:03;;;;;;;6.60;3.00;;;;;;;3.41;38.24;102460.77;109811;1246;69422;-88
2023/02/10 09:26:51;;;;;;;6.40;3.70;;;;;;;3.49;37.98;102457.28;109991;1245;74318;-89
2023/02/10 09:29:41;;;;;;;5.60;3.20;;;;;;;3.58;38.25;102458.55;109855;1246;59447;-89
2023/02/10 09:32:30;;;;;;;6.30;3.80;;;;;;;3.80;37.87;102454.73;109861;1247;60759;-89
2023/02/10 09:35:19;;;;;;;8.20;3.80;;;;;;;3.97;38.08;102452.02;109846;1247;74132;-89
2023/02/10 09:38:09;;;;;;;7.30;3.60;;;;;;;4.16;37.95;102450.48;109768;1244;69120;-89
2023/02/10 09:41:12;;;;;;;6.90;3.50;;;;;;;4.34;37.31;102445.02;109951;1246;73483;-91
2023/02/10 09:44:13;;;;;;;8.10;3.30;;;;;;;4.40;36.50;102448.20;109826;1245;59024;-91
2023/02/10 09:47:23;;;;;;;13.80;5.60;;;;;;;4.43;35.53;102444.58;110077;1247;59823;-91
2023/02/10 09:50:30;;;;;;;21.00;8.40;;;;;;;4.38;35.42;102442.23;110180;1247;73204;-91
2023/02/10 09:53:23;;;;;;;13.40;5.50;;;;;;;4.24;35.53;102438.23;109818;1247;67743;-91
2023/02/10 09:56:20;;;;;;;6.10;3.50;;;;;;;4.21;36.22;102435.70;109758;1247;72006;-91
2023/02/10 09:59:18;;;;;;;6.10;3.30;;;;;;;4.20;36.01;102432.39;109660;1246;58981;-93
2023/02/10 10:02:20;;;;;;;6.60;3.00;;;;;;;4.22;36.21;102434.30;109655;1246;59852;-92
2023/02/10 10:05:35;;;;;;;5.30;2.80;;;;;;;4.32;36.53;102423.00;109763;1246;76113;-92
2023/02/10 10:09:08;;;;;;;9.30;4.00;;;;;;;4.45;36.63;102416.73;109735;1245;69962;-94
2023/02/10 10:11:57;;;;;;;6.10;2.50;;;;;;;4.63;36.03;102408.69;109213;1256;73883;-91
2023/02/10 10:14:46;;;;;;;7.30;3.00;;;;;;;4.67;36.13;102405.23;109259;1253;60420;-93
2023/02/10 10:17:41;;;;;;;8.90;4.20;;;;;;;4.66;35.22;102397.11;109787;1249;60916;-92
2023/02/10 10:20:39;;;;;;;7.60;3.90;;;;;;;4.66;34.22;102394.10;109795;1247;75296;-92
2023/02/10 10:23:48;;;;;;;11.10;4.70;;;;;;;4.52;34.15;102392.38;109708;1246;70501;-91
2023/02/10 10:26:53;;;;;;;7.10;2.80;;;;;;;4.54;33.99;102392.81;109696;1246;73394;-92
2023/02/10 10:29:46;;;;;;;6.30;3.30;;;;;;;4.67;33.75;102390.54;109768;1250;60584;-92
2023/02/10 10:32:42;;;;;;;19.00;9.40;;;;;;;4.67;33.58;102390.45;109776;1247;60661;-92
2023/02/10 10:35:41;;;;;;;41.70;23.00;;;;;;;4.59;32.68;102384.41;109720;1249;75638;-92
2023/02/10 10:38:32;;;;;;;11.10;6.00;;;;;;;4.43;33.52;102382.31;109851;1247;70218;-93
2023/02/10 10:41:23;;;;;;;12.80;6.60;;;;;;;4.44;33.51;102373.13;109691;1247;71046;-92
2023/02/10 10:44:16;;;;;;;62.30;25.90;;;;;;;4.34;34.30;102362.19;109717;1246;59639;-93
2023/02/10 10:47:13;;;;;;;25.20;13.30;;;;;;;4.28;34.36;102355.60;110084;1244;60684;-92
2023/02/10 10:50:03;;;;;;;15.50;8.60;;;;;;;4.38;35.04;102347.48;109796;1246;74777;-91
2023/02/10 10:52:54;;;;;;;17.80;8.20;;;;;;;4.41;35.46;102356.56;109650;1246;68994;-92
2023/02/10 10:55:48;;;;;;;25.80;13.20;;;;;;;4.47;35.05;102359.11;109655;1247;73336;-92
2023/02/10 10:58:45;;;;;;;9.40;5.00;;;;;;;4.64;35.65;102356.95;109682;1247;59407;-91
2023/02/10 11:01:37;;;;;;;6.70;3.60;;;;;;;4.74;35.47;102350.47;109748;1245;59111;-92
2023/02/10 11:04:27;;;;;;;5.90;3.20;;;;;;;4.79;35.30;102355.11;109858;1244;75694;-93
2023/02/10 11:07:18;;;;;;;6.70;3.60;;;;;;;4.86;34.91;102353.67;109920;1245;70227;-90
2023/02/10 11:10:23;;;;;;;5.50;3.30;;;;;;;4.89;34.60;102350.39;109847;1246;72453;-92
2023/02/10 11:13:23;;;;;;;8.40;4.40;;;;;;;4.92;34.46;102346.30;109734;1247;59459;-94
2023/02/10 11:16:15;;;;;;;8.70;4.60;;;;;;;4.87;34.29;102350.77;109892;1245;60319;-94
2023/02/10 11:19:16;;;;;;;9.60;4.20;;;;;;;4.85;34.13;102348.91;109734;1246;73493;-92
2023/02/10 11:22:14;;;;;;;10.00;4.40;;;;;;;4.84;34.71;102339.95;109800;1246;69246;-92
2023/02/10 11:25:28;;;;;;;9.70;4.40;;;;;;;4.82;35.76;102331.63;109803;1250;73783;-91
2023/02/10 11:28:19;;;;;;;8.40;4.10;;;;;;;4.73;35.83;102324.38;109789;1247;59793;-91
2023/02/10 11:31:27;;;;;;;6.60;4.40;;;;;;;4.68;36.04;102317.76;109818;1244;59858;-91
2023/02/10 11:34:23;;;;;;;6.00;3.70;;;;;;;4.73;35.82;102312.45;109817;1246;75247;-92
2023/02/10 11:37:21;;;;;;;8.70;3.80;;;;;;;4.72;36.03;102300.09;109766;1247;67643;-91
2023/02/10 11:40:18;;;;;;;7.60;3.70;;;;;;;4.80;35.64;102303.14;109732;1248;73168;-93
2023/02/10 11:43:10;;;;;;;8.40;3.60;;;;;;;4.71;35.24;102300.24;109821;1247;60479;-91
2023/02/10 11:46:01;;;;;;;9.10;4.00;;;;;;;4.66;35.38;102302.57;109631;1247;61590;-89
2023/02/10 11:49:16;;;;;;;6.50;3.60;;;;;;;4.77;35.50;102299.67;109891;1246;76924;-90
2023/02/10 11:52:05;;;;;;;9.10;3.90;;;;;;;4.81;35.34;102294.70;109786;1245;68716;-90
2023/02/10 11:54:54;;;;;;;9.30;4.50;;;;;;;4.68;35.54;102293.92;109913;1244;71661;-89
2023/02/10 12:01:24;;;;;;;11.00;3.80;;;;;;;4.81;35.33;102281.89;109763;1247;59270;-90
2023/02/10 12:04:35;;;;;;;6.20;3.10;;;;;;;4.85;35.05;102283.48;109800;1245;75858;-92
2023/02/10 12:08:01;;;;;;;8.30;3.70;;;;;;;4.71;34.52;102280.37;109843;1246;69478;-93
2023/02/10 12:11:33;;;;;;;9.50;3.90;;;;;;;4.64;35.25;102283.77;109845;1248;72585;-92
2023/02/10 12:15:01;;;;;;;8.30;3.70;;;;;;;4.56;35.60;102291.11;109877;1248;60640;-92
2023/02/10 12:18:18;;;;;;;7.50;2.60;;;;;;;4.62;34.30;102291.70;109765;1246;59115;-92
2023/02/10 12:21:29;;;;;;;9.00;2.90;;;;;;;4.56;32.70;102290.23;109746;1247;274215;-92
2023/02/10 12:24:42;;;;;;;7.10;3.30;;;;;;;4.58;32.91;102290.96;109865;1248;69649;-92
2023/02/10 12:27:46;;;;;;;6.30;3.40;;;;;;;4.55;33.27;102285.68;109904;1246;73955;-92
2023/02/10 12:30:51;;;;;;;10.80;3.60;;;;;;;4.43;34.47;102282.36;109879;1248;59925;-92
2023/02/10 12:34:24;;;;;;;8.10;3.90;;;;;;;4.39;35.09;102280.86;109881;1246;60669;-92
2023/02/10 12:37:59;;;;;;;7.80;4.20;;;;;;;4.40;35.87;102285.25;109764;1247;72976;-94
2023/02/10 12:41:11;;;;;;;7.30;3.70;;;;;;;4.43;36.42;102279.65;109741;1247;71022;-92
2023/02/10 12:44:12;;;;;;;5.70;3.50;;;;;;;4.41;35.78;102283.02;109709;1247;73780;-92
2023/02/10 12:47:16;;;;;;;6.40;3.10;;;;;;;4.30;34.12;102278.33;109806;1247;60291;-92
2023/02/10 12:50:57;;;;;;;7.80;3.50;;;;;;;4.15;34.05;102274.67;109721;1247;61019;-93
2023/02/10 12:54:07;;;;;;;9.30;3.50;;;;;;;4.01;34.26;102273.16;109693;1248;75252;-91
2023/02/10 12:57:06;;;;;;;7.80;3.70;;;;;;;3.98;34.77;102274.33;109821;1248;68145;-92
2023/02/10 13:00:13;;;;;;;8.50;5.20;;;;;;;4.01;35.35;102273.86;109718;1248;71750;-92
2023/02/10 13:03:17;;;;;;;7.60;4.10;;;;;;;4.07;35.04;102272.98;109919;1246;58997;-92
2023/02/10 13:06:14;;;;;;;18.00;10.00;;;;;;;4.03;35.19;102265.11;109713;1246;59746;-92
2023/02/10 13:09:21;;;;;;;11.60;6.10;;;;;;;4.01;35.72;102268.95;109788;1247;74639;-91
2023/02/10 13:12:21;;;;;;;19.60;9.00;;;;;;;3.97;36.39;102267.33;109513;1248;68762;-93